sensor_id;sensor_type;location;lat;lon;timestamp;P1;durP1;ratioP1;P2;durP2;ratioP2
15716;SDS011;7960;50.908;4.204;2023-05-07T00:00:46;10.67;;;6.30;;
15716;SDS011;7960;50.908;4.204;2023-05-07T00:03:14;9.63;;;5.50;;
15716;SDS011;7960;50.908;4.204;2023-05-07T00:05:41;10.43;;;5.70;;
15716;SDS011;7960;50.908;4.204;2023-05-07T00:08:08;11.83;;;6.37;;
15716;SDS011;7960;50.908;4.204;2023-05-07T00:10:35;9.93;;;5.70;;
15716;SDS011;7960;50.908;4.204;2023-05-07T00:13:02;13.43;;;5.93;;
15716;SDS011;7960;50.908;4.204;2023-05-07T00:15:29;14.23;;;5.77;;
15716;SDS011;7960;50.908;4.204;2023-05-07T00:17:56;9.17;;;5.87;;
15716;SDS011;7960;50.908;4.204;2023-05-07T00:20:25;10.83;;;6.27;;
15716;SDS011;7960;50.908;4.204;2023-05-07T00:22:52;9.80;;;5.40;;
15716;SDS011;7960;50.908;4.204;2023-05-07T00:25:19;11.70;;;5.53;;
15716;SDS011;7960;50.908;4.204;2023-05-07T00:27:46;8.97;;;5.47;;
15716;SDS011;7960;50.908;4.204;2023-05-07T00:30:13;8.07;;;5.00;;
15716;SDS011;7960;50.908;4.204;2023-05-07T00:32:41;10.00;;;5.43;;
15716;SDS011;7960;50.908;4.204;2023-05-07T00:35:10;8.87;;;5.23;;
15716;SDS011;7960;50.908;4.204;2023-05-07T00:37:38;9.60;;;5.43;;
15716;SDS011;7960;50.908;4.204;2023-05-07T00:40:06;7.90;;;5.20;;
15716;SDS011;7960;50.908;4.204;2023-05-07T00:42:33;8.80;;;5.23;;
15716;SDS011;7960;50.908;4.204;2023-05-07T00:45:00;7.60;;;5.00;;
15716;SDS011;7960;50.908;4.204;2023-05-07T00:47:27;8.13;;;5.33;;
15716;SDS011;7960;50.908;4.204;2023-05-07T00:49:55;9.17;;;5.37;;
15716;SDS011;7960;50.908;4.204;2023-05-07T00:52:23;11.60;;;6.20;;
15716;SDS011;7960;50.908;4.204;2023-05-07T00:54:53;7.20;;;4.73;;
15716;SDS011;7960;50.908;4.204;2023-05-07T00:57:21;8.47;;;5.23;;
15716;SDS011;7960;50.908;4.204;2023-05-07T00:59:50;10.63;;;4.97;;
15716;SDS011;7960;50.908;4.204;2023-05-07T01:02:18;10.93;;;5.30;;
15716;SDS011;7960;50.908;4.204;2023-05-07T01:04:45;10.43;;;5.30;;
15716;SDS011;7960;50.908;4.204;2023-05-07T01:07:12;11.03;;;5.50;;
15716;SDS011;7960;50.908;4.204;2023-05-07T01:09:39;10.90;;;5.50;;
15716;SDS011;7960;50.908;4.204;2023-05-07T01:12:08;11.63;;;6.33;;
15716;SDS011;7960;50.908;4.204;2023-05-07T01:14:35;8.60;;;5.30;;
15716;SDS011;7960;50.908;4.204;2023-05-07T01:17:02;9.03;;;5.20;;
15716;SDS011;7960;50.908;4.204;2023-05-07T01:19:29;8.20;;;5.73;;
15716;SDS011;7960;50.908;4.204;2023-05-07T01:21:59;8.83;;;5.20;;
15716;SDS011;7960;50.908;4.204;2023-05-07T01:24:31;11.33;;;5.57;;
15716;SDS011;7960;50.908;4.204;2023-05-07T01:26:58;11.57;;;5.37;;
15716;SDS011;7960;50.908;4.204;2023-05-07T01:29:26;9.50;;;4.80;;
15716;SDS011;7960;50.908;4.204;2023-05-07T01:31:54;10.10;;;5.23;;
15716;SDS011;7960;50.908;4.204;2023-05-07T01:34:24;12.57;;;4.97;;
15716;SDS011;7960;50.908;4.204;2023-05-07T01:36:53;9.27;;;5.10;;
15716;SDS011;7960;50.908;4.204;2023-05-07T01:39:23;11.87;;;5.87;;
15716;SDS011;7960;50.908;4.204;2023-05-07T01:41:53;11.80;;;5.47;;
15716;SDS011;7960;50.908;4.204;2023-05-07T01:44:21;5.73;;;5.13;;
15716;SDS011;7960;50.908;4.204;2023-05-07T01:46:48;12.77;;;6.30;;
15716;SDS011;7960;50.908;4.204;2023-05-07T01:49:15;10.80;;;6.27;;
15716;SDS011;7960;50.908;4.204;2023-05-07T01:51:43;14.67;;;5.90;;
15716;SDS011;7960;50.908;4.204;2023-05-07T01:54:10;7.80;;;4.97;;
15716;SDS011;7960;50.908;4.204;2023-05-07T01:56:37;9.60;;;5.50;;
15716;SDS011;7960;50.908;4.204;2023-05-07T01:59:05;11.30;;;5.40;;
15716;SDS011;7960;50.908;4.204;2023-05-07T02:01:32;8.60;;;5.27;;
15716;SDS011;7960;50.908;4.204;2023-05-07T02:03:59;9.20;;;5.20;;
15716;SDS011;7960;50.908;4.204;2023-05-07T02:06:26;10.37;;;5.57;;
15716;SDS011;7960;50.908;4.204;2023-05-07T02:08:53;7.30;;;5.60;;
15716;SDS011;7960;50.908;4.204;2023-05-07T02:11:20;8.67;;;5.27;;
15716;SDS011;7960;50.908;4.204;2023-05-07T02:13:47;7.63;;;5.30;;
15716;SDS011;7960;50.908;4.204;2023-05-07T02:16:15;9.10;;;5.40;;
15716;SDS011;7960;50.908;4.204;2023-05-07T02:18:42;11.23;;;5.97;;
15716;SDS011;7960;50.908;4.204;2023-05-07T02:21:09;6.87;;;5.43;;
15716;SDS011;7960;50.908;4.204;2023-05-07T02:23:36;10.40;;;5.80;;
15716;SDS011;7960;50.908;4.204;2023-05-07T02:26:03;11.53;;;6.07;;
15716;SDS011;7960;50.908;4.204;2023-05-07T02:28:30;9.27;;;5.90;;
15716;SDS011;7960;50.908;4.204;2023-05-07T02:30:58;7.97;;;5.50;;
15716;SDS011;7960;50.908;4.204;2023-05-07T02:33:27;9.23;;;4.77;;
15716;SDS011;7960;50.908;4.204;2023-05-07T02:35:54;11.03;;;5.30;;
15716;SDS011;7960;50.908;4.204;2023-05-07T02:38:21;12.57;;;5.77;;
15716;SDS011;7960;50.908;4.204;2023-05-07T02:40:48;14.60;;;5.77;;
15716;SDS011;7960;50.908;4.204;2023-05-07T02:43:15;15.37;;;5.50;;
15716;SDS011;7960;50.908;4.204;2023-05-07T02:45:42;10.07;;;5.40;;
15716;SDS011;7960;50.908;4.204;2023-05-07T02:48:09;12.93;;;5.80;;
15716;SDS011;7960;50.908;4.204;2023-05-07T02:50:38;8.63;;;5.27;;
15716;SDS011;7960;50.908;4.204;2023-05-07T02:53:05;8.17;;;5.43;;
15716;SDS011;7960;50.908;4.204;2023-05-07T02:55:32;7.47;;;5.20;;
15716;SDS011;7960;50.908;4.204;2023-05-07T02:57:59;12.17;;;4.90;;
15716;SDS011;7960;50.908;4.204;2023-05-07T03:00:26;9.77;;;5.33;;
15716;SDS011;7960;50.908;4.204;2023-05-07T03:02:53;8.90;;;5.77;;
15716;SDS011;7960;50.908;4.204;2023-05-07T03:05:21;9.83;;;5.23;;
15716;SDS011;7960;50.908;4.204;2023-05-07T03:07:49;7.97;;;5.30;;
15716;SDS011;7960;50.908;4.204;2023-05-07T03:10:16;9.90;;;5.23;;
15716;SDS011;7960;50.908;4.204;2023-05-07T03:12:43;11.13;;;5.30;;
15716;SDS011;7960;50.908;4.204;2023-05-07T03:15:10;12.33;;;5.57;;
15716;SDS011;7960;50.908;4.204;2023-05-07T03:17:37;8.23;;;5.17;;
15716;SDS011;7960;50.908;4.204;2023-05-07T03:20:05;12.67;;;6.03;;
15716;SDS011;7960;50.908;4.204;2023-05-07T03:22:33;8.73;;;5.57;;
15716;SDS011;7960;50.908;4.204;2023-05-07T03:25:01;8.73;;;5.73;;
15716;SDS011;7960;50.908;4.204;2023-05-07T03:27:28;8.87;;;5.57;;
15716;SDS011;7960;50.908;4.204;2023-05-07T03:29:55;8.67;;;5.80;;
15716;SDS011;7960;50.908;4.204;2023-05-07T03:32:22;10.97;;;5.50;;
15716;SDS011;7960;50.908;4.204;2023-05-07T03:34:49;8.20;;;6.23;;
15716;SDS011;7960;50.908;4.204;2023-05-07T03:37:16;10.20;;;6.40;;
15716;SDS011;7960;50.908;4.204;2023-05-07T03:39:44;13.60;;;6.17;;
15716;SDS011;7960;50.908;4.204;2023-05-07T03:42:13;8.87;;;5.40;;
15716;SDS011;7960;50.908;4.204;2023-05-07T03:44:40;8.83;;;5.37;;
15716;SDS011;7960;50.908;4.204;2023-05-07T03:47:07;11.13;;;5.67;;
15716;SDS011;7960;50.908;4.204;2023-05-07T03:49:35;10.37;;;5.70;;
15716;SDS011;7960;50.908;4.204;2023-05-07T03:52:02;9.00;;;4.80;;
15716;SDS011;7960;50.908;4.204;2023-05-07T03:54:29;11.10;;;5.40;;
15716;SDS011;7960;50.908;4.204;2023-05-07T03:56:56;7.13;;;4.87;;
15716;SDS011;7960;50.908;4.204;2023-05-07T03:59:25;10.17;;;5.03;;
15716;SDS011;7960;50.908;4.204;2023-05-07T04:01:51;9.73;;;5.10;;
15716;SDS011;7960;50.908;4.204;2023-05-07T04:04:18;9.03;;;4.87;;
15716;SDS011;7960;50.908;4.204;2023-05-07T04:06:46;8.13;;;5.20;;
15716;SDS011;7960;50.908;4.204;2023-05-07T04:09:13;9.73;;;6.03;;
15716;SDS011;7960;50.908;4.204;2023-05-07T04:11:40;11.40;;;5.10;;
15716;SDS011;7960;50.908;4.204;2023-05-07T04:14:07;11.27;;;5.27;;
15716;SDS011;7960;50.908;4.204;2023-05-07T04:16:35;9.73;;;5.97;;
15716;SDS011;7960;50.908;4.204;2023-05-07T04:19:02;9.73;;;5.33;;
15716;SDS011;7960;50.908;4.204;2023-05-07T04:21:29;7.23;;;4.73;;
15716;SDS011;7960;50.908;4.204;2023-05-07T04:23:56;9.20;;;4.80;;
15716;SDS011;7960;50.908;4.204;2023-05-07T04:26:23;10.80;;;5.53;;
15716;SDS011;7960;50.908;4.204;2023-05-07T04:28:50;11.90;;;5.27;;
15716;SDS011;7960;50.908;4.204;2023-05-07T04:31:17;8.23;;;4.80;;
15716;SDS011;7960;50.908;4.204;2023-05-07T04:33:46;10.67;;;5.60;;
15716;SDS011;7960;50.908;4.204;2023-05-07T04:36:13;8.97;;;5.03;;
15716;SDS011;7960;50.908;4.204;2023-05-07T04:38:40;9.10;;;5.37;;
15716;SDS011;7960;50.908;4.204;2023-05-07T04:41:08;13.63;;;5.27;;
15716;SDS011;7960;50.908;4.204;2023-05-07T04:43:35;10.93;;;4.73;;
15716;SDS011;7960;50.908;4.204;2023-05-07T04:46:02;8.60;;;5.03;;
15716;SDS011;7960;50.908;4.204;2023-05-07T04:48:29;16.77;;;5.20;;
15716;SDS011;7960;50.908;4.204;2023-05-07T04:50:58;8.90;;;4.70;;
15716;SDS011;7960;50.908;4.204;2023-05-07T04:53:25;9.73;;;5.00;;
15716;SDS011;7960;50.908;4.204;2023-05-07T04:55:54;11.93;;;5.20;;
15716;SDS011;7960;50.908;4.204;2023-05-07T04:58:22;9.37;;;4.77;;
15716;SDS011;7960;50.908;4.204;2023-05-07T05:00:49;9.53;;;5.43;;
15716;SDS011;7960;50.908;4.204;2023-05-07T05:03:16;11.27;;;4.70;;
15716;SDS011;7960;50.908;4.204;2023-05-07T05:05:43;9.07;;;4.90;;
15716;SDS011;7960;50.908;4.204;2023-05-07T05:08:11;11.10;;;5.10;;
15716;SDS011;7960;50.908;4.204;2023-05-07T05:10:38;9.37;;;4.40;;
15716;SDS011;7960;50.908;4.204;2023-05-07T05:13:06;11.10;;;4.60;;
15716;SDS011;7960;50.908;4.204;2023-05-07T05:15:33;7.87;;;4.87;;
15716;SDS011;7960;50.908;4.204;2023-05-07T05:18:00;8.13;;;4.63;;
15716;SDS011;7960;50.908;4.204;2023-05-07T05:20:27;9.70;;;4.30;;
15716;SDS011;7960;50.908;4.204;2023-05-07T05:22:54;7.90;;;4.33;;
15716;SDS011;7960;50.908;4.204;2023-05-07T05:25:23;9.27;;;4.10;;
15716;SDS011;7960;50.908;4.204;2023-05-07T05:27:49;11.07;;;4.20;;
15716;SDS011;7960;50.908;4.204;2023-05-07T05:30:16;11.27;;;4.40;;
15716;SDS011;7960;50.908;4.204;2023-05-07T05:32:43;8.90;;;4.20;;
15716;SDS011;7960;50.908;4.204;2023-05-07T05:35:10;7.00;;;4.23;;
15716;SDS011;7960;50.908;4.204;2023-05-07T05:37:37;11.93;;;4.53;;
15716;SDS011;7960;50.908;4.204;2023-05-07T05:40:04;10.50;;;4.13;;
15716;SDS011;7960;50.908;4.204;2023-05-07T05:42:33;6.30;;;4.23;;
15716;SDS011;7960;50.908;4.204;2023-05-07T05:45:00;10.90;;;4.40;;
15716;SDS011;7960;50.908;4.204;2023-05-07T05:47:27;6.73;;;4.53;;
15716;SDS011;7960;50.908;4.204;2023-05-07T05:49:54;8.10;;;4.23;;
15716;SDS011;7960;50.908;4.204;2023-05-07T05:52:21;7.27;;;4.60;;
15716;SDS011;7960;50.908;4.204;2023-05-07T05:54:48;7.97;;;4.80;;
15716;SDS011;7960;50.908;4.204;2023-05-07T05:57:15;8.53;;;4.50;;
15716;SDS011;7960;50.908;4.204;2023-05-07T05:59:44;9.67;;;5.10;;
15716;SDS011;7960;50.908;4.204;2023-05-07T06:02:12;7.67;;;5.00;;
15716;SDS011;7960;50.908;4.204;2023-05-07T06:04:39;11.00;;;5.77;;
15716;SDS011;7960;50.908;4.204;2023-05-07T06:07:07;11.40;;;6.07;;
15716;SDS011;7960;50.908;4.204;2023-05-07T06:09:34;10.37;;;6.30;;
15716;SDS011;7960;50.908;4.204;2023-05-07T06:12:01;7.20;;;6.27;;
15716;SDS011;7960;50.908;4.204;2023-05-07T06:14:28;12.97;;;6.53;;
15716;SDS011;7960;50.908;4.204;2023-05-07T06:16:56;11.67;;;6.63;;
15716;SDS011;7960;50.908;4.204;2023-05-07T06:19:23;11.13;;;6.70;;
15716;SDS011;7960;50.908;4.204;2023-05-07T06:21:51;11.13;;;6.60;;
15716;SDS011;7960;50.908;4.204;2023-05-07T06:24:18;11.57;;;7.40;;
15716;SDS011;7960;50.908;4.204;2023-05-07T06:26:45;10.97;;;7.10;;
15716;SDS011;7960;50.908;4.204;2023-05-07T06:29:12;11.07;;;6.90;;
15716;SDS011;7960;50.908;4.204;2023-05-07T06:31:39;10.43;;;7.07;;
15716;SDS011;7960;50.908;4.204;2023-05-07T06:34:07;12.70;;;7.30;;
15716;SDS011;7960;50.908;4.204;2023-05-07T06:36:35;9.50;;;6.90;;
15716;SDS011;7960;50.908;4.204;2023-05-07T06:39:02;11.63;;;7.20;;
15716;SDS011;7960;50.908;4.204;2023-05-07T06:41:29;10.77;;;6.87;;
15716;SDS011;7960;50.908;4.204;2023-05-07T06:43:55;9.20;;;6.97;;
15716;SDS011;7960;50.908;4.204;2023-05-07T06:46:22;10.90;;;7.57;;
15716;SDS011;7960;50.908;4.204;2023-05-07T06:48:49;9.10;;;6.63;;
15716;SDS011;7960;50.908;4.204;2023-05-07T06:51:18;10.20;;;7.40;;
15716;SDS011;7960;50.908;4.204;2023-05-07T06:53:45;11.07;;;7.77;;
15716;SDS011;7960;50.908;4.204;2023-05-07T06:56:12;11.03;;;7.30;;
15716;SDS011;7960;50.908;4.204;2023-05-07T06:58:39;9.97;;;7.10;;
15716;SDS011;7960;50.908;4.204;2023-05-07T07:01:06;11.33;;;7.43;;
15716;SDS011;7960;50.908;4.204;2023-05-07T07:03:33;10.43;;;7.20;;
15716;SDS011;7960;50.908;4.204;2023-05-07T07:06:00;10.63;;;7.27;;
15716;SDS011;7960;50.908;4.204;2023-05-07T07:08:28;10.43;;;7.73;;
15716;SDS011;7960;50.908;4.204;2023-05-07T07:10:55;8.93;;;7.17;;
15716;SDS011;7960;50.908;4.204;2023-05-07T07:13:22;10.37;;;7.17;;
15716;SDS011;7960;50.908;4.204;2023-05-07T07:15:49;10.63;;;6.60;;
15716;SDS011;7960;50.908;4.204;2023-05-07T07:18:17;9.10;;;7.07;;
15716;SDS011;7960;50.908;4.204;2023-05-07T07:20:45;12.60;;;6.87;;
15716;SDS011;7960;50.908;4.204;2023-05-07T07:23:12;9.03;;;6.50;;
15716;SDS011;7960;50.908;4.204;2023-05-07T07:25:40;9.43;;;6.80;;
15716;SDS011;7960;50.908;4.204;2023-05-07T07:28:07;11.43;;;6.70;;
15716;SDS011;7960;50.908;4.204;2023-05-07T07:30:34;7.60;;;6.20;;
15716;SDS011;7960;50.908;4.204;2023-05-07T07:33:01;11.00;;;6.70;;
15716;SDS011;7960;50.908;4.204;2023-05-07T07:35:28;11.47;;;7.30;;
15716;SDS011;7960;50.908;4.204;2023-05-07T07:37:55;9.73;;;6.63;;
15716;SDS011;7960;50.908;4.204;2023-05-07T07:40:22;8.90;;;6.50;;
15716;SDS011;7960;50.908;4.204;2023-05-07T07:42:51;8.87;;;6.50;;
15716;SDS011;7960;50.908;4.204;2023-05-07T07:45:19;7.40;;;6.10;;
15716;SDS011;7960;50.908;4.204;2023-05-07T07:47:46;7.40;;;5.10;;
15716;SDS011;7960;50.908;4.204;2023-05-07T07:50:13;7.07;;;5.10;;
15716;SDS011;7960;50.908;4.204;2023-05-07T07:52:40;9.23;;;5.80;;
15716;SDS011;7960;50.908;4.204;2023-05-07T07:55:08;9.13;;;5.37;;
15716;SDS011;7960;50.908;4.204;2023-05-07T07:57:35;7.43;;;5.43;;
15716;SDS011;7960;50.908;4.204;2023-05-07T08:00:04;6.53;;;4.67;;
15716;SDS011;7960;50.908;4.204;2023-05-07T08:02:32;8.07;;;5.40;;
15716;SDS011;7960;50.908;4.204;2023-05-07T08:04:59;9.90;;;5.50;;
15716;SDS011;7960;50.908;4.204;2023-05-07T08:07:26;8.53;;;5.03;;
15716;SDS011;7960;50.908;4.204;2023-05-07T08:09:53;10.13;;;5.43;;
15716;SDS011;7960;50.908;4.204;2023-05-07T08:12:19;8.27;;;5.70;;
15716;SDS011;7960;50.908;4.204;2023-05-07T08:14:46;9.07;;;5.83;;
15716;SDS011;7960;50.908;4.204;2023-05-07T08:17:15;11.20;;;5.53;;
15716;SDS011;7960;50.908;4.204;2023-05-07T08:19:42;7.50;;;5.20;;
15716;SDS011;7960;50.908;4.204;2023-05-07T08:22:09;7.13;;;4.40;;
15716;SDS011;7960;50.908;4.204;2023-05-07T08:24:36;9.40;;;5.23;;
15716;SDS011;7960;50.908;4.204;2023-05-07T08:27:03;11.63;;;6.17;;
15716;SDS011;7960;50.908;4.204;2023-05-07T08:29:30;8.87;;;6.00;;
15716;SDS011;7960;50.908;4.204;2023-05-07T08:31:56;6.67;;;5.97;;
15716;SDS011;7960;50.908;4.204;2023-05-07T08:34:25;10.67;;;6.57;;
15716;SDS011;7960;50.908;4.204;2023-05-07T08:36:52;13.23;;;6.70;;
15716;SDS011;7960;50.908;4.204;2023-05-07T08:39:18;7.70;;;5.53;;
15716;SDS011;7960;50.908;4.204;2023-05-07T08:41:45;6.80;;;5.47;;
15716;SDS011;7960;50.908;4.204;2023-05-07T08:44:14;7.17;;;5.80;;
15716;SDS011;7960;50.908;4.204;2023-05-07T08:46:46;7.50;;;5.60;;
15716;SDS011;7960;50.908;4.204;2023-05-07T08:49:14;7.53;;;5.73;;
15716;SDS011;7960;50.908;4.204;2023-05-07T08:51:43;6.43;;;5.37;;
15716;SDS011;7960;50.908;4.204;2023-05-07T08:54:10;8.10;;;6.17;;
15716;SDS011;7960;50.908;4.204;2023-05-07T08:56:38;8.70;;;5.20;;
15716;SDS011;7960;50.908;4.204;2023-05-07T08:59:05;7.87;;;5.67;;
15716;SDS011;7960;50.908;4.204;2023-05-07T09:01:32;9.47;;;5.93;;
15716;SDS011;7960;50.908;4.204;2023-05-07T09:04:01;8.40;;;5.50;;
15716;SDS011;7960;50.908;4.204;2023-05-07T09:06:28;8.83;;;5.80;;
15716;SDS011;7960;50.908;4.204;2023-05-07T09:08:56;11.23;;;5.40;;
15716;SDS011;7960;50.908;4.204;2023-05-07T09:11:26;8.13;;;5.70;;
15716;SDS011;7960;50.908;4.204;2023-05-07T09:13:53;9.37;;;5.93;;
15716;SDS011;7960;50.908;4.204;2023-05-07T09:16:21;7.73;;;5.07;;
15716;SDS011;7960;50.908;4.204;2023-05-07T09:18:50;8.43;;;5.47;;
15716;SDS011;7960;50.908;4.204;2023-05-07T09:21:19;8.73;;;5.60;;
15716;SDS011;7960;50.908;4.204;2023-05-07T09:23:47;8.07;;;5.40;;
15716;SDS011;7960;50.908;4.204;2023-05-07T09:26:16;6.77;;;5.00;;
15716;SDS011;7960;50.908;4.204;2023-05-07T09:28:43;6.90;;;5.20;;
15716;SDS011;7960;50.908;4.204;2023-05-07T09:31:11;12.53;;;5.73;;
15716;SDS011;7960;50.908;4.204;2023-05-07T09:33:38;8.37;;;6.00;;
15716;SDS011;7960;50.908;4.204;2023-05-07T09:36:06;5.43;;;4.93;;
15716;SDS011;7960;50.908;4.204;2023-05-07T09:38:35;8.07;;;5.87;;
15716;SDS011;7960;50.908;4.204;2023-05-07T09:41:03;7.73;;;5.87;;
15716;SDS011;7960;50.908;4.204;2023-05-07T09:43:33;8.93;;;6.00;;
15716;SDS011;7960;50.908;4.204;2023-05-07T09:46:02;8.03;;;5.80;;
15716;SDS011;7960;50.908;4.204;2023-05-07T09:48:32;9.70;;;5.90;;
15716;SDS011;7960;50.908;4.204;2023-05-07T09:51:06;10.40;;;6.60;;
15716;SDS011;7960;50.908;4.204;2023-05-07T09:53:40;10.23;;;7.80;;
15716;SDS011;7960;50.908;4.204;2023-05-07T09:56:10;7.67;;;5.83;;
15716;SDS011;7960;50.908;4.204;2023-05-07T09:58:41;9.77;;;6.40;;
15716;SDS011;7960;50.908;4.204;2023-05-07T10:01:10;9.00;;;6.33;;
15716;SDS011;7960;50.908;4.204;2023-05-07T10:03:39;7.80;;;6.13;;
15716;SDS011;7960;50.908;4.204;2023-05-07T10:06:08;11.03;;;7.00;;
15716;SDS011;7960;50.908;4.204;2023-05-07T10:08:35;9.40;;;7.33;;
15716;SDS011;7960;50.908;4.204;2023-05-07T10:11:03;14.30;;;9.83;;
15716;SDS011;7960;50.908;4.204;2023-05-07T10:13:31;10.70;;;7.30;;
15716;SDS011;7960;50.908;4.204;2023-05-07T10:16:02;13.17;;;7.60;;
15716;SDS011;7960;50.908;4.204;2023-05-07T10:20:59;8.57;;;6.73;;
15716;SDS011;7960;50.908;4.204;2023-05-07T10:23:30;8.20;;;6.73;;
15716;SDS011;7960;50.908;4.204;2023-05-07T10:25:59;10.10;;;6.80;;
15716;SDS011;7960;50.908;4.204;2023-05-07T10:28:29;7.17;;;6.37;;
15716;SDS011;7960;50.908;4.204;2023-05-07T10:31:04;10.07;;;7.03;;
15716;SDS011;7960;50.908;4.204;2023-05-07T10:33:42;12.17;;;8.47;;
15716;SDS011;7960;50.908;4.204;2023-05-07T10:36:11;10.63;;;8.13;;
15716;SDS011;7960;50.908;4.204;2023-05-07T10:38:38;9.07;;;6.80;;
15716;SDS011;7960;50.908;4.204;2023-05-07T10:41:06;12.17;;;7.07;;
15716;SDS011;7960;50.908;4.204;2023-05-07T10:43:39;12.60;;;7.33;;
15716;SDS011;7960;50.908;4.204;2023-05-07T10:46:14;5.83;;;5.00;;
15716;SDS011;7960;50.908;4.204;2023-05-07T10:51:36;5.67;;;3.93;;
15716;SDS011;7960;50.908;4.204;2023-05-07T10:54:21;5.37;;;4.20;;
15716;SDS011;7960;50.908;4.204;2023-05-07T10:56:52;5.87;;;4.27;;
15716;SDS011;7960;50.908;4.204;2023-05-07T10:59:32;5.63;;;4.57;;
15716;SDS011;7960;50.908;4.204;2023-05-07T11:02:08;7.77;;;4.90;;
15716;SDS011;7960;50.908;4.204;2023-05-07T11:04:36;6.70;;;5.70;;
15716;SDS011;7960;50.908;4.204;2023-05-07T11:10:07;5.23;;;4.40;;
15716;SDS011;7960;50.908;4.204;2023-05-07T11:12:47;8.60;;;5.40;;
15716;SDS011;7960;50.908;4.204;2023-05-07T11:15:34;5.77;;;4.97;;
15716;SDS011;7960;50.908;4.204;2023-05-07T11:18:04;6.27;;;5.20;;
15716;SDS011;7960;50.908;4.204;2023-05-07T11:26:42;7.97;;;4.90;;
15716;SDS011;7960;50.908;4.204;2023-05-07T11:29:14;7.13;;;5.40;;
15716;SDS011;7960;50.908;4.204;2023-05-07T11:31:42;8.17;;;5.60;;
15716;SDS011;7960;50.908;4.204;2023-05-07T11:34:11;10.10;;;6.87;;
15716;SDS011;7960;50.908;4.204;2023-05-07T11:36:41;7.87;;;6.73;;
15716;SDS011;7960;50.908;4.204;2023-05-07T11:39:29;10.77;;;7.17;;
15716;SDS011;7960;50.908;4.204;2023-05-07T11:41:58;6.47;;;5.60;;
15716;SDS011;7960;50.908;4.204;2023-05-07T11:44:38;7.43;;;6.10;;
15716;SDS011;7960;50.908;4.204;2023-05-07T11:47:09;5.47;;;4.97;;
15716;SDS011;7960;50.908;4.204;2023-05-07T11:49:37;7.70;;;5.07;;
15716;SDS011;7960;50.908;4.204;2023-05-07T11:52:05;7.40;;;5.73;;
15716;SDS011;7960;50.908;4.204;2023-05-07T11:54:34;11.63;;;8.70;;
15716;SDS011;7960;50.908;4.204;2023-05-07T11:57:02;6.00;;;5.33;;
15716;SDS011;7960;50.908;4.204;2023-05-07T11:59:30;6.33;;;5.27;;
15716;SDS011;7960;50.908;4.204;2023-05-07T12:02:05;7.00;;;5.30;;
15716;SDS011;7960;50.908;4.204;2023-05-07T12:04:32;6.57;;;5.20;;
15716;SDS011;7960;50.908;4.204;2023-05-07T12:07:01;6.60;;;5.53;;
15716;SDS011;7960;50.908;4.204;2023-05-07T12:09:28;6.40;;;5.80;;
15716;SDS011;7960;50.908;4.204;2023-05-07T12:11:55;6.53;;;5.40;;
15716;SDS011;7960;50.908;4.204;2023-05-07T12:14:21;5.13;;;4.70;;
15716;SDS011;7960;50.908;4.204;2023-05-07T12:16:53;8.83;;;5.87;;
15716;SDS011;7960;50.908;4.204;2023-05-07T12:19:20;5.50;;;5.00;;
15716;SDS011;7960;50.908;4.204;2023-05-07T12:21:47;6.53;;;5.73;;
15716;SDS011;7960;50.908;4.204;2023-05-07T12:24:16;7.50;;;6.80;;
15716;SDS011;7960;50.908;4.204;2023-05-07T12:26:43;7.27;;;6.57;;
15716;SDS011;7960;50.908;4.204;2023-05-07T12:29:10;9.67;;;8.57;;
15716;SDS011;7960;50.908;4.204;2023-05-07T12:31:39;8.87;;;8.03;;
15716;SDS011;7960;50.908;4.204;2023-05-07T12:34:07;9.87;;;8.83;;
15716;SDS011;7960;50.908;4.204;2023-05-07T12:36:37;8.73;;;7.90;;
15716;SDS011;7960;50.908;4.204;2023-05-07T12:39:04;9.53;;;8.63;;
15716;SDS011;7960;50.908;4.204;2023-05-07T12:41:34;10.93;;;9.83;;
15716;SDS011;7960;50.908;4.204;2023-05-07T12:44:04;10.73;;;9.70;;
15716;SDS011;7960;50.908;4.204;2023-05-07T12:46:31;10.37;;;9.37;;
15716;SDS011;7960;50.908;4.204;2023-05-07T12:48:58;11.30;;;10.20;;
15716;SDS011;7960;50.908;4.204;2023-05-07T12:51:25;11.37;;;10.17;;
15716;SDS011;7960;50.908;4.204;2023-05-07T12:53:55;11.37;;;10.27;;
15716;SDS011;7960;50.908;4.204;2023-05-07T12:56:23;12.50;;;11.30;;
15716;SDS011;7960;50.908;4.204;2023-05-07T12:58:51;11.03;;;9.97;;
15716;SDS011;7960;50.908;4.204;2023-05-07T13:01:28;11.93;;;10.67;;
15716;SDS011;7960;50.908;4.204;2023-05-07T13:03:55;12.80;;;11.03;;
15716;SDS011;7960;50.908;4.204;2023-05-07T13:06:26;11.77;;;10.57;;
15716;SDS011;7960;50.908;4.204;2023-05-07T13:08:53;11.53;;;10.37;;
15716;SDS011;7960;50.908;4.204;2023-05-07T13:11:20;11.47;;;10.37;;
15716;SDS011;7960;50.908;4.204;2023-05-07T13:13:47;11.63;;;10.50;;
15716;SDS011;7960;50.908;4.204;2023-05-07T13:16:15;12.77;;;11.57;;
15716;SDS011;7960;50.908;4.204;2023-05-07T13:18:42;12.67;;;11.47;;
15716;SDS011;7960;50.908;4.204;2023-05-07T13:21:10;11.87;;;10.70;;
15716;SDS011;7960;50.908;4.204;2023-05-07T13:23:39;10.90;;;9.80;;
15716;SDS011;7960;50.908;4.204;2023-05-07T13:26:06;12.43;;;10.40;;
15716;SDS011;7960;50.908;4.204;2023-05-07T13:28:33;12.73;;;10.57;;
15716;SDS011;7960;50.908;4.204;2023-05-07T13:31:00;10.90;;;9.90;;
15716;SDS011;7960;50.908;4.204;2023-05-07T13:33:29;10.43;;;9.43;;
15716;SDS011;7960;50.908;4.204;2023-05-07T13:35:56;10.60;;;9.60;;
15716;SDS011;7960;50.908;4.204;2023-05-07T13:38:23;10.33;;;9.27;;
15716;SDS011;7960;50.908;4.204;2023-05-07T13:40:50;10.03;;;8.47;;
15716;SDS011;7960;50.908;4.204;2023-05-07T13:43:16;10.23;;;8.90;;
15716;SDS011;7960;50.908;4.204;2023-05-07T13:45:43;11.73;;;9.50;;
15716;SDS011;7960;50.908;4.204;2023-05-07T13:48:10;9.73;;;8.80;;
15716;SDS011;7960;50.908;4.204;2023-05-07T13:50:39;9.80;;;8.80;;
15716;SDS011;7960;50.908;4.204;2023-05-07T13:53:07;10.30;;;9.30;;
15716;SDS011;7960;50.908;4.204;2023-05-07T13:55:34;11.43;;;10.33;;
15716;SDS011;7960;50.908;4.204;2023-05-07T13:58:01;11.60;;;10.40;;
15716;SDS011;7960;50.908;4.204;2023-05-07T14:00:29;13.13;;;10.93;;
15716;SDS011;7960;50.908;4.204;2023-05-07T14:02:56;11.57;;;10.47;;
15716;SDS011;7960;50.908;4.204;2023-05-07T14:05:23;12.30;;;10.53;;
15716;SDS011;7960;50.908;4.204;2023-05-07T14:07:51;12.23;;;11.03;;
15716;SDS011;7960;50.908;4.204;2023-05-07T14:10:18;14.30;;;12.77;;
15716;SDS011;7960;50.908;4.204;2023-05-07T14:12:45;12.70;;;11.40;;
15716;SDS011;7960;50.908;4.204;2023-05-07T14:15:13;13.30;;;11.20;;
15716;SDS011;7960;50.908;4.204;2023-05-07T14:17:41;13.07;;;11.60;;
15716;SDS011;7960;50.908;4.204;2023-05-07T14:20:08;15.03;;;11.97;;
15716;SDS011;7960;50.908;4.204;2023-05-07T14:22:36;11.97;;;10.63;;
15716;SDS011;7960;50.908;4.204;2023-05-07T14:25:05;9.13;;;7.20;;
15716;SDS011;7960;50.908;4.204;2023-05-07T14:27:32;6.60;;;5.97;;
15716;SDS011;7960;50.908;4.204;2023-05-07T14:29:59;5.60;;;5.10;;
15716;SDS011;7960;50.908;4.204;2023-05-07T14:32:26;5.90;;;5.30;;
15716;SDS011;7960;50.908;4.204;2023-05-07T14:34:53;6.30;;;5.63;;
15716;SDS011;7960;50.908;4.204;2023-05-07T14:37:20;6.83;;;6.10;;
15716;SDS011;7960;50.908;4.204;2023-05-07T14:39:47;7.60;;;6.80;;
15716;SDS011;7960;50.908;4.204;2023-05-07T14:42:15;6.07;;;5.50;;
15716;SDS011;7960;50.908;4.204;2023-05-07T14:44:42;9.20;;;6.20;;
15716;SDS011;7960;50.908;4.204;2023-05-07T14:47:11;6.10;;;5.20;;
15716;SDS011;7960;50.908;4.204;2023-05-07T14:49:38;5.83;;;5.27;;
15716;SDS011;7960;50.908;4.204;2023-05-07T14:52:05;5.37;;;4.87;;
15716;SDS011;7960;50.908;4.204;2023-05-07T14:54:35;4.70;;;4.30;;
15716;SDS011;7960;50.908;4.204;2023-05-07T14:57:04;6.07;;;4.80;;
15716;SDS011;7960;50.908;4.204;2023-05-07T14:59:33;4.43;;;3.80;;
15716;SDS011;7960;50.908;4.204;2023-05-07T15:02:00;4.70;;;4.30;;
15716;SDS011;7960;50.908;4.204;2023-05-07T15:04:27;8.90;;;5.30;;
15716;SDS011;7960;50.908;4.204;2023-05-07T15:06:54;6.20;;;5.60;;
15716;SDS011;7960;50.908;4.204;2023-05-07T15:09:21;5.20;;;4.70;;
15716;SDS011;7960;50.908;4.204;2023-05-07T15:11:48;10.47;;;4.77;;
15716;SDS011;7960;50.908;4.204;2023-05-07T15:14:15;7.03;;;5.30;;